BER829K EDDL-EDXW
Flight info
| Callsign | BER829K |
|---|---|
| Flight time | 0h 41m |
| Altitude | 33000 |
| Route | MEVEL4T/23L MEVEL L179 OSNAD M170 ELSOB Y348 OMWEG DCT BADOS DCT OLDIP |
| Aircraft | A319/M-SDE2E3FGHIRWXYZ/L |
Departure
| Time | 2026-05-04 16:17 |
|---|---|
| Airport | Düsseldorf Airport (EDDL) |
Arrival
| Time | 2026-05-04 16:58 |
|---|---|
| Airport | Westerland Sylt Airport (EDXW) |
| Time | Latitude | Longitude | Altitude | Speed | Heading |
|---|---|---|---|---|---|
| 2026-05-04 15:40 | 51.28044 | 6.76219 | 126 ft | 0 kts | 162° |
| 2026-05-04 16:02 | 51.28067 | 6.76208 | 126 ft | 4 kts | 164° |
| 2026-05-04 16:03 | 51.28093 | 6.76195 | 127 ft | 4 kts | 154° |
| 2026-05-04 16:03 | 51.28110 | 6.76176 | 125 ft | 4 kts | 87° |
| 2026-05-04 16:03 | 51.28110 | 6.76169 | 126 ft | 0 kts | 53° |
| 2026-05-04 16:09 | 51.28116 | 6.76183 | 127 ft | 2 kts | 53° |
| 2026-05-04 16:09 | 51.28157 | 6.76255 | 130 ft | 6 kts | 25° |
| 2026-05-04 16:10 | 51.28247 | 6.76268 | 128 ft | 8 kts | 46° |
| 2026-05-04 16:11 | 51.28402 | 6.76588 | 122 ft | 14 kts | 52° |
| 2026-05-04 16:11 | 51.28456 | 6.76702 | 126 ft | 11 kts | 52° |
| 2026-05-04 16:12 | 51.28630 | 6.77073 | 130 ft | 16 kts | 53° |
| 2026-05-04 16:12 | 51.28808 | 6.77449 | 127 ft | 15 kts | 52° |
| 2026-05-04 16:13 | 51.28956 | 6.77759 | 128 ft | 18 kts | 53° |
| 2026-05-04 16:13 | 51.29102 | 6.78060 | 132 ft | 15 kts | 52° |
| 2026-05-04 16:14 | 51.29202 | 6.78268 | 139 ft | 8 kts | 52° |
| 2026-05-04 16:14 | 51.29238 | 6.78343 | 142 ft | 4 kts | 52° |
| 2026-05-04 16:15 | 51.29378 | 6.78577 | 152 ft | 9 kts | 5° |
| 2026-05-04 16:16 | 51.29528 | 6.78554 | 154 ft | 8 kts | 349° |
| 2026-05-04 16:16 | 51.29049 | 6.77482 | 129 ft | 124 kts | 232° |
| 2026-05-04 16:17 | 51.27774 | 6.74822 | 1007 ft | 158 kts | 232° |
| 2026-05-04 16:18 | 51.27183 | 6.69644 | 2485 ft | 204 kts | 317° |
| 2026-05-04 16:18 | 51.28473 | 6.68693 | 3270 ft | 208 kts | 346° |
| 2026-05-04 16:19 | 51.33329 | 6.68987 | 5034 ft | 269 kts | 4° |
| 2026-05-04 16:19 | 51.37164 | 6.69416 | 7065 ft | 281 kts | 4° |
| 2026-05-04 16:20 | 51.43174 | 6.69692 | 10113 ft | 294 kts | 359° |
| 2026-05-04 16:20 | 51.47545 | 6.69635 | 10969 ft | 332 kts | 359° |
| 2026-05-04 16:21 | 51.54602 | 6.69593 | 13267 ft | 345 kts | 0° |
| 2026-05-04 16:22 | 51.59433 | 6.70154 | 14640 ft | 354 kts | 15° |
| 2026-05-04 16:22 | 51.65444 | 6.77067 | 16547 ft | 367 kts | 54° |
| 2026-05-04 16:23 | 51.70091 | 6.87198 | 18413 ft | 382 kts | 55° |
| 2026-05-04 16:24 | 51.76554 | 7.01307 | 20588 ft | 400 kts | 55° |
| 2026-05-04 16:25 | 51.79890 | 7.08624 | 21653 ft | 409 kts | 55° |
| 2026-05-04 16:26 | 51.86465 | 7.23591 | 24669 ft | 397 kts | 56° |
| 2026-05-04 16:26 | 51.93652 | 7.29320 | 26135 ft | 398 kts | 2° |
| 2026-05-04 16:27 | 51.99179 | 7.30775 | 27071 ft | 408 kts | 14° |
| 2026-05-04 16:28 | 52.07381 | 7.34956 | 28468 ft | 418 kts | 14° |
| 2026-05-04 16:28 | 52.15822 | 7.39113 | 29817 ft | 427 kts | 14° |
| 2026-05-04 16:29 | 52.27616 | 7.44980 | 30507 ft | 461 kts | 14° |
| 2026-05-04 16:30 | 52.37055 | 7.49744 | 30939 ft | 483 kts | 14° |
| 2026-05-04 16:31 | 52.43481 | 7.53000 | 31488 ft | 489 kts | 14° |
| 2026-05-04 16:31 | 52.53259 | 7.57947 | 32689 ft | 489 kts | 13° |
| 2026-05-04 16:32 | 52.62835 | 7.62831 | 32969 ft | 468 kts | 13° |
| 2026-05-04 16:33 | 52.75183 | 7.69143 | 32969 ft | 464 kts | 13° |
| 2026-05-04 16:34 | 52.84362 | 7.73855 | 32972 ft | 462 kts | 12° |
| 2026-05-04 16:35 | 53.02750 | 7.83352 | 33006 ft | 460 kts | 12° |
| 2026-05-04 16:36 | 53.05806 | 7.84943 | 32899 ft | 460 kts | 12° |
| 2026-05-04 16:36 | 53.11893 | 7.88133 | 32367 ft | 458 kts | 12° |
| 2026-05-04 16:37 | 53.17915 | 7.91283 | 31846 ft | 456 kts | 12° |
| 2026-05-04 16:37 | 53.20937 | 7.92862 | 31601 ft | 455 kts | 12° |
| 2026-05-04 16:37 | 53.26961 | 7.96019 | 31083 ft | 453 kts | 12° |
| 2026-05-04 16:38 | 53.32938 | 7.99167 | 30291 ft | 448 kts | 12° |
| 2026-05-04 16:39 | 53.41781 | 8.03859 | 28650 ft | 439 kts | 12° |
| 2026-05-04 16:39 | 53.47562 | 8.06911 | 27668 ft | 432 kts | 12° |
| 2026-05-04 16:40 | 53.53262 | 8.09934 | 26677 ft | 426 kts | 12° |
| 2026-05-04 16:40 | 53.58840 | 8.12908 | 25734 ft | 421 kts | 12° |
| 2026-05-04 16:41 | 53.64384 | 8.15885 | 24773 ft | 416 kts | 12° |
| 2026-05-04 16:41 | 53.72608 | 8.20316 | 23256 ft | 411 kts | 11° |
| 2026-05-04 16:42 | 53.80717 | 8.24668 | 21749 ft | 403 kts | 12° |
| 2026-05-04 16:43 | 53.86026 | 8.27547 | 20839 ft | 397 kts | 12° |
| 2026-05-04 16:43 | 53.91208 | 8.30360 | 19890 ft | 391 kts | 13° |
| 2026-05-04 16:43 | 53.93794 | 8.31765 | 19499 ft | 386 kts | 13° |
| 2026-05-04 16:44 | 54.03944 | 8.37292 | 17370 ft | 382 kts | 14° |
| 2026-05-04 16:45 | 54.08972 | 8.40040 | 16313 ft | 377 kts | 14° |
| 2026-05-04 16:46 | 54.16375 | 8.44112 | 14858 ft | 369 kts | 14° |
| 2026-05-04 16:46 | 54.21195 | 8.46762 | 13911 ft | 364 kts | 14° |
| 2026-05-04 16:47 | 54.25983 | 8.49408 | 12860 ft | 359 kts | 14° |
| 2026-05-04 16:47 | 54.30707 | 8.52029 | 11830 ft | 353 kts | 14° |
| 2026-05-04 16:48 | 54.37642 | 8.55874 | 10333 ft | 345 kts | 14° |
| 2026-05-04 16:48 | 54.39887 | 8.57120 | 9843 ft | 342 kts | 14° |
| 2026-05-04 16:49 | 54.44380 | 8.59627 | 8784 ft | 337 kts | 14° |
| 2026-05-04 16:49 | 54.48788 | 8.62128 | 7782 ft | 331 kts | 16° |
| 2026-05-04 16:50 | 54.53075 | 8.64822 | 6815 ft | 325 kts | 18° |
| 2026-05-04 16:50 | 54.57281 | 8.67533 | 5805 ft | 320 kts | 18° |
| 2026-05-04 16:51 | 54.61471 | 8.69145 | 5106 ft | 297 kts | 351° |
| 2026-05-04 16:51 | 54.63392 | 8.68208 | 4856 ft | 280 kts | 330° |
| 2026-05-04 16:51 | 54.66488 | 8.64588 | 4343 ft | 260 kts | 322° |
| 2026-05-04 16:52 | 54.69393 | 8.61038 | 3835 ft | 253 kts | 322° |
| 2026-05-04 16:52 | 54.70828 | 8.59283 | 3583 ft | 252 kts | 323° |
| 2026-05-04 16:53 | 54.73169 | 8.56419 | 3165 ft | 241 kts | 323° |
| 2026-05-04 16:53 | 54.77314 | 8.51335 | 2989 ft | 201 kts | 322° |
| 2026-05-04 16:54 | 54.78066 | 8.50410 | 2972 ft | 197 kts | 322° |
| 2026-05-04 16:55 | 54.82348 | 8.45140 | 2059 ft | 175 kts | 323° |
| 2026-05-04 16:55 | 54.84185 | 8.42876 | 1602 ft | 149 kts | 323° |
| 2026-05-04 16:56 | 54.85721 | 8.40979 | 1250 ft | 125 kts | 323° |
| 2026-05-04 16:56 | 54.87814 | 8.38393 | 715 ft | 121 kts | 324° |
| 2026-05-04 16:57 | 54.88497 | 8.37547 | 550 ft | 120 kts | 323° |
| 2026-05-04 16:57 | 54.89874 | 8.35846 | 209 ft | 121 kts | 324° |
| 2026-05-04 16:58 | 54.91386 | 8.33971 | 35 ft | 46 kts | 325° |
| 2026-05-04 16:58 | 54.91594 | 8.33710 | 36 ft | 28 kts | 324° |
| 2026-05-04 16:59 | 54.91706 | 8.33447 | 35 ft | 10 kts | 293° |
| 2026-05-04 17:00 | 54.91682 | 8.33178 | 35 ft | 11 kts | 179° |
| 2026-05-04 17:00 | 54.91444 | 8.33212 | 29 ft | 12 kts | 146° |
| 2026-05-04 17:01 | 54.91354 | 8.33228 | 29 ft | 5 kts | 232° |
| 2026-05-04 17:01 | 54.91351 | 8.33152 | 29 ft | 2 kts | 270° |
| 2026-05-04 17:02 | 54.91351 | 8.33117 | 29 ft | 0 kts | 269° |